Time;durP1;ratioP1;P1;durP2;ratioP2;P2;SDS_P1;SDS_P2;PMS_P1;PMS_P2;Temp;Humidity;BMP_temperature;BMP_pressure;BME280_temperature;BME280_humidity;BME280_pressure;Samples;Min_cycle;Max_cycle;Signal;HPM_P1;HPM_P2
2022/08/04 00:02:02;;;;;;;10.82;9.73;;;;;;;20.90;82.18;100033.84;1668998;84;21533;-73
2022/08/04 00:04:56;;;;;;;10.95;9.85;;;;;;;20.91;82.19;100034.16;1666869;84;22336;-72
2022/08/04 00:08:03;;;;;;;14.47;9.95;;;;;;;20.89;82.14;100031.68;1608805;87;21064;-72
2022/08/04 00:10:30;;;;;;;11.20;9.88;;;;;;;20.87;82.13;100036.42;1665189;85;21119;-72
2022/08/04 00:12:57;;;;;;;11.97;10.05;;;;;;;20.85;82.16;100034.45;1673447;84;21039;-71
2022/08/04 00:15:23;;;;;;;10.75;9.75;;;;;;;20.84;82.13;100030.08;1669126;84;21020;-72
2022/08/04 00:17:58;;;;;;;11.60;9.63;;;;;;;20.81;82.13;100021.09;1658659;85;21934;-72
2022/08/04 00:20:24;;;;;;;10.08;9.18;;;;;;;20.78;82.17;100022.84;1659970;85;20975;-72
2022/08/04 00:22:51;;;;;;;10.15;9.13;;;;;;;20.77;82.19;100023.87;1651871;84;22091;-72
2022/08/04 00:25:18;;;;;;;11.05;9.95;;;;;;;20.77;82.22;100025.20;1656749;84;21008;-72
2022/08/04 00:27:45;;;;;;;10.08;9.18;;;;;;;20.74;82.12;100022.89;1661386;85;20944;-73
2022/08/04 00:30:12;;;;;;;10.00;9.08;;;;;;;20.72;82.15;100019.59;1651762;84;21938;-73
2022/08/04 00:32:42;;;;;;;10.68;9.58;;;;;;;20.69;82.18;100026.18;1659181;84;21104;-70
2022/08/04 00:35:09;;;;;;;10.70;9.68;;;;;;;20.66;82.16;100021.22;1662552;84;21041;-71
2022/08/04 00:37:38;;;;;;;10.32;9.23;;;;;;;20.65;82.24;100026.75;1667965;84;21161;-71
2022/08/04 00:40:25;;;;;;;10.40;9.40;;;;;;;20.66;82.30;100019.87;1661711;85;20972;-71
2022/08/04 00:43:20;;;;;;;10.58;9.53;;;;;;;20.67;82.30;100018.02;1671823;83;22504;-71
2022/08/04 00:46:02;;;;;;;12.40;9.50;;;;;;;20.64;82.33;100023.24;1665170;85;21092;-71
2022/08/04 00:48:52;;;;;;;12.90;9.25;;;;;;;20.63;82.44;100029.64;1658886;84;21076;-74
2022/08/04 00:51:38;;;;;;;10.28;9.38;;;;;;;20.63;82.47;100028.30;1659156;85;21076;-73
2022/08/04 00:54:32;;;;;;;10.32;9.33;;;;;;;20.64;82.46;100029.95;1659260;85;21031;-71
2022/08/04 00:57:24;;;;;;;12.45;9.13;;;;;;;20.64;82.52;100029.95;1659082;84;22500;-71
2022/08/04 01:00:09;;;;;;;10.63;9.50;;;;;;;20.63;82.46;100038.20;1649572;85;21004;-71
2022/08/04 01:02:48;;;;;;;10.25;9.30;;;;;;;20.60;82.51;100041.28;1655740;84;21555;-72
2022/08/04 01:05:46;;;;;;;10.32;9.30;;;;;;;20.60;82.58;100042.62;1659434;85;21022;-74
2022/08/04 01:08:36;;;;;;;11.90;10.48;;;;;;;20.60;82.61;100046.14;1663199;84;21462;-71
2022/08/04 01:11:24;;;;;;;11.00;9.90;;;;;;;20.54;82.42;100042.36;1653589;85;21874;-71
2022/08/04 01:14:18;;;;;;;11.28;10.13;;;;;;;20.51;82.48;100043.28;1640351;85;21020;-72
2022/08/04 01:16:51;;;;;;;11.63;10.45;;;;;;;20.51;82.58;100045.45;1669488;83;21485;-72
2022/08/04 01:19:55;;;;;;;11.35;10.18;;;;;;;20.52;82.55;100045.77;1699875;83;20992;-72
2022/08/04 01:22:45;;;;;;;11.97;10.75;;;;;;;20.52;82.49;100051.13;1685829;83;21024;-71
2022/08/04 01:25:39;;;;;;;11.03;9.93;;;;;;;20.52;82.50;100048.95;1649017;85;22590;-71
2022/08/04 01:28:29;;;;;;;14.33;11.10;;;;;;;20.50;82.44;100042.45;1701637;83;21031;-71
2022/08/04 01:30:59;;;;;;;13.18;10.45;;;;;;;20.50;82.31;100046.47;1726168;83;20979;-71
2022/08/04 01:33:28;;;;;;;11.53;10.53;;;;;;;20.46;82.32;100041.19;1672211;83;21088;-71
2022/08/04 01:35:57;;;;;;;12.78;10.90;;;;;;;20.47;82.32;100050.06;1696595;83;21056;-71
2022/08/04 01:38:31;;;;;;;12.63;10.88;;;;;;;20.49;82.30;100047.50;1686449;83;22554;-71
2022/08/04 01:41:01;;;;;;;14.87;11.48;;;;;;;20.48;82.22;100048.53;1680934;84;21047;-71
2022/08/04 01:43:30;;;;;;;11.85;10.65;;;;;;;20.45;82.25;100044.87;1675758;83;21450;-72
2022/08/04 01:45:59;;;;;;;12.10;10.80;;;;;;;20.42;82.29;100045.75;1700767;83;21000;-72
2022/08/04 01:48:26;;;;;;;14.68;10.68;;;;;;;20.40;82.35;100045.95;1684339;84;20960;-72
2022/08/04 01:50:55;;;;;;;11.33;10.25;;;;;;;20.42;82.33;100050.59;1684088;85;21899;-71
2022/08/04 01:53:21;;;;;;;11.83;10.55;;;;;;;20.44;82.36;100043.73;1690725;83;21059;-72
2022/08/04 01:55:48;;;;;;;11.05;10.05;;;;;;;20.47;82.31;100048.21;1686030;83;21009;-72
2022/08/04 01:58:19;;;;;;;11.00;9.95;;;;;;;20.48;82.21;100051.20;1685372;83;20972;-72
2022/08/04 02:01:01;;;;;;;16.45;10.48;;;;;;;20.49;82.13;100047.50;1683227;84;21121;-72
2022/08/04 02:03:28;;;;;;;10.35;9.35;;;;;;;20.49;82.03;100047.50;1684349;83;21853;-71
2022/08/04 02:06:17;;;;;;;10.55;9.50;;;;;;;20.48;81.91;100045.02;1686269;83;20965;-72
2022/08/04 02:08:52;;;;;;;10.25;9.25;;;;;;;20.47;81.81;100042.02;1693317;83;21105;-72
2022/08/04 02:11:21;;;;;;;10.35;9.45;;;;;;;20.45;81.70;100048.89;1700589;83;21170;-71
2022/08/04 02:14:07;;;;;;;10.45;9.20;;;;;;;20.41;81.66;100038.22;1697042;82;21054;-71
2022/08/04 02:16:45;;;;;;;10.88;9.80;;;;;;;20.42;81.72;100037.19;1662582;85;22575;-73
2022/08/04 02:19:29;;;;;;;11.10;10.00;;;;;;;20.42;81.66;100038.53;1697793;83;20941;-71
2022/08/04 02:21:59;;;;;;;11.18;10.08;;;;;;;20.41;81.69;100036.87;1698597;82;20995;-71
2022/08/04 02:24:26;;;;;;;11.83;10.63;;;;;;;20.40;81.70;100033.05;1696861;83;21145;-73
2022/08/04 02:26:53;;;;;;;11.38;10.32;;;;;;;20.38;81.70;100037.27;1668319;84;20983;-72
2022/08/04 02:29:51;;;;;;;11.28;9.93;;;;;;;20.34;81.76;100036.48;1702396;83;21890;-72
2022/08/04 02:32:26;;;;;;;11.48;10.38;;;;;;;20.34;81.92;100035.15;1698100;83;21513;-72
2022/08/04 02:35:06;;;;;;;11.60;10.28;;;;;;;20.32;81.93;100028.64;1692654;83;21097;-71
2022/08/04 02:37:34;;;;;;;11.85;10.70;;;;;;;20.33;82.03;100032.98;1700316;83;20976;-71
2022/08/04 02:40:05;;;;;;;11.45;10.40;;;;;;;20.34;82.06;100031.95;1699501;83;21076;-72
2022/08/04 02:42:32;;;;;;;12.35;10.48;;;;;;;20.33;82.10;100028.95;1699720;82;21862;-72
2022/08/04 02:44:59;;;;;;;11.57;10.05;;;;;;;20.34;82.09;100027.93;1696547;83;21136;-72
2022/08/04 02:47:28;;;;;;;12.18;10.35;;;;;;;20.35;82.11;100028.25;1701703;83;21026;-72
2022/08/04 02:49:56;;;;;;;11.88;10.72;;;;;;;20.36;82.14;100024.53;1701615;83;20957;-71
2022/08/04 02:52:23;;;;;;;12.28;10.23;;;;;;;20.37;82.08;100025.40;1699499;82;21379;-71
2022/08/04 02:54:53;;;;;;;11.65;10.53;;;;;;;20.37;82.09;100024.88;1696618;83;22593;-71
2022/08/04 02:57:23;;;;;;;11.95;10.43;;;;;;;20.40;82.07;100025.00;1668228;84;21015;-72
2022/08/04 03:00:13;;;;;;;11.48;10.30;;;;;;;20.39;82.07;100024.17;1700768;84;21032;-72
2022/08/04 03:03:04;;;;;;;11.30;10.00;;;;;;;20.39;82.09;100022.83;1693472;83;21033;-73
2022/08/04 03:05:49;;;;;;;11.73;10.20;;;;;;;20.39;82.15;100024.17;1642110;86;21006;-71
2022/08/04 03:08:55;;;;;;;10.70;9.70;;;;;;;20.42;82.15;100022.95;1642365;87;21746;-71
2022/08/04 03:11:47;;;;;;;10.55;9.45;;;;;;;20.44;82.14;100021.75;1650488;83;21078;-72
2022/08/04 03:14:53;;;;;;;10.53;9.40;;;;;;;20.48;82.09;100028.41;1637085;86;21021;-73
2022/08/04 03:17:43;;;;;;;10.78;9.68;;;;;;;20.51;82.01;100026.66;1653313;84;21760;-72
2022/08/04 03:20:43;;;;;;;10.80;9.68;;;;;;;20.54;81.90;100037.00;1645047;85;20972;-73
2022/08/04 03:23:29;;;;;;;10.25;9.20;;;;;;;20.54;81.82;100034.83;1643891;84;21759;-73
2022/08/04 03:26:36;;;;;;;11.22;10.13;;;;;;;20.54;81.75;100045.56;1674834;84;20965;-73
2022/08/04 03:29:36;;;;;;;11.30;10.20;;;;;;;20.53;81.70;100039.88;1689192;83;20969;-71
2022/08/04 03:32:45;;;;;;;12.00;10.65;;;;;;;20.47;81.57;100043.36;1689334;83;20960;-72
2022/08/04 03:35:55;;;;;;;11.48;10.32;;;;;;;20.41;81.62;100043.58;1667043;84;21035;-71
2022/08/04 03:38:39;;;;;;;15.13;11.53;;;;;;;20.38;81.72;100048.00;1656821;85;21947;-71
2022/08/04 03:41:39;;;;;;;12.58;11.28;;;;;;;20.37;81.71;100046.86;1660696;85;20964;-71
2022/08/04 03:44:33;;;;;;;15.72;12.07;;;;;;;20.33;81.73;100046.39;1656184;84;21383;-71
2022/08/04 03:47:24;;;;;;;12.18;10.95;;;;;;;20.28;81.77;100042.96;1663685;84;21090;-71
2022/08/04 03:49:56;;;;;;;12.78;11.48;;;;;;;20.32;81.90;100042.05;1658173;85;21024;-73
2022/08/04 03:55:47;;;;;;;12.98;11.78;;;;;;;20.39;81.95;100040.27;1667879;84;21069;-73
2022/08/04 03:58:48;;;;;;;13.50;12.30;;;;;;;20.41;81.85;100042.75;1658660;85;21470;-73
2022/08/04 04:01:53;;;;;;;14.05;12.75;;;;;;;20.42;81.79;100039.04;1657251;85;21078;-73
2022/08/04 04:04:31;;;;;;;14.40;12.90;;;;;;;20.42;81.66;100045.75;1662622;84;21028;-72
2022/08/04 04:07:32;;;;;;;13.80;12.30;;;;;;;20.41;81.60;100046.77;1654376;85;22580;-71
2022/08/04 04:10:23;;;;;;;14.98;13.40;;;;;;;20.42;81.68;100046.58;1668719;84;21044;-72
2022/08/04 04:13:28;;;;;;;15.05;13.50;;;;;;;20.43;81.59;100049.60;1670225;84;21060;-71
2022/08/04 04:16:28;;;;;;;15.05;13.53;;;;;;;20.44;81.54;100053.94;1660186;84;21705;-72
2022/08/04 04:19:20;;;;;;;14.73;13.18;;;;;;;20.45;81.43;100052.09;1609975;87;21459;-71
2022/08/04 04:22:15;;;;;;;14.83;13.35;;;;;;;20.45;81.44;100052.92;1650451;85;21985;-71
2022/08/04 04:25:17;;;;;;;14.18;12.75;;;;;;;20.46;81.41;100050.58;1656368;84;20964;-72
2022/08/04 04:28:15;;;;;;;14.98;12.78;;;;;;;20.50;81.39;100057.20;1667061;85;20965;-72
2022/08/04 04:30:53;;;;;;;15.72;13.08;;;;;;;20.49;81.25;100053.38;1649660;85;20996;-72
2022/08/04 04:33:45;;;;;;;14.03;12.55;;;;;;;20.50;81.35;100055.03;1659908;84;21055;-71
2022/08/04 04:36:22;;;;;;;14.00;12.60;;;;;;;20.55;81.37;100057.44;1659495;84;22674;-72
2022/08/04 04:39:16;;;;;;;14.60;13.10;;;;;;;20.56;81.23;100056.44;1657263;85;21027;-73
2022/08/04 04:42:00;;;;;;;14.55;13.15;;;;;;;20.60;81.22;100059.55;1671634;83;24751;-72
2022/08/04 04:44:57;;;;;;;14.40;13.00;;;;;;;20.63;81.09;100061.84;1668877;84;21420;-72
2022/08/04 04:47:34;;;;;;;14.68;13.30;;;;;;;20.64;80.98;100061.33;1664610;84;21016;-72
2022/08/04 04:50:18;;;;;;;15.48;13.88;;;;;;;20.63;81.02;100059.67;1635873;85;21637;-72
2022/08/04 04:52:50;;;;;;;15.43;13.93;;;;;;;20.64;81.00;100062.66;1660785;84;20964;-71
2022/08/04 04:55:26;;;;;;;15.23;13.72;;;;;;;20.66;81.09;100068.18;1667869;85;21403;-71
2022/08/04 04:57:57;;;;;;;14.68;13.18;;;;;;;20.68;81.03;100070.15;1662135;85;21118;-71
2022/08/04 05:00:44;;;;;;;16.00;12.98;;;;;;;20.71;80.98;100072.95;1657571;85;21494;-74
2022/08/04 05:03:39;;;;;;;14.83;13.32;;;;;;;20.74;80.94;100069.86;1657426;84;21806;-71
2022/08/04 05:06:36;;;;;;;14.65;13.25;;;;;;;20.80;80.77;100081.17;1668789;85;20975;-71
2022/08/04 05:09:23;;;;;;;14.63;13.20;;;;;;;20.85;80.74;100080.09;1659475;85;21011;-73
2022/08/04 05:12:27;;;;;;;14.93;13.55;;;;;;;20.91;80.59;100083.31;1637466;85;21134;-71
2022/08/04 05:14:54;;;;;;;15.23;13.72;;;;;;;20.89;80.16;100084.03;1632900;85;21422;-71
2022/08/04 05:17:31;;;;;;;14.58;12.98;;;;;;;20.92;80.14;100085.48;1666849;85;21885;-73
2022/08/04 05:20:18;;;;;;;15.93;13.90;;;;;;;20.92;79.93;100084.14;1724551;83;21405;-72
2022/08/04 05:23:02;;;;;;;18.45;16.62;;;;;;;20.89;79.82;100081.34;1658342;84;21005;-72
2022/08/04 05:25:40;;;;;;;22.43;18.07;;;;;;;20.87;79.74;100080.72;1692125;83;21016;-74
2022/08/04 05:28:21;;;;;;;16.10;14.58;;;;;;;20.89;79.94;100089.91;1692302;83;20948;-72
2022/08/04 05:31:02;;;;;;;16.20;14.15;;;;;;;20.93;79.92;100092.52;1658611;84;21967;-71
2022/08/04 05:33:52;;;;;;;15.48;14.07;;;;;;;20.94;79.72;100095.03;1690706;83;21088;-71
2022/08/04 05:36:22;;;;;;;16.05;14.35;;;;;;;20.94;79.61;100100.88;1660489;86;21511;-71
2022/08/04 05:38:58;;;;;;;16.42;14.85;;;;;;;20.92;79.40;100102.94;1653437;85;21107;-71
2022/08/04 05:41:23;;;;;;;16.85;15.20;;;;;;;20.89;79.25;100100.66;1682793;83;21578;-72
2022/08/04 05:43:51;;;;;;;17.17;15.30;;;;;;;20.83;79.21;100095.02;1689518;83;22048;-72
2022/08/04 05:46:18;;;;;;;17.27;14.65;;;;;;;20.82;79.22;100096.56;1686649;84;21634;-70
2022/08/04 05:48:45;;;;;;;16.65;15.13;;;;;;;20.80;79.36;100098.63;1685252;83;20957;-70
2022/08/04 05:51:11;;;;;;;17.52;15.75;;;;;;;20.82;79.40;100098.73;1693348;83;21016;-72
2022/08/04 05:53:45;;;;;;;17.42;15.63;;;;;;;20.82;79.42;100101.94;1694611;83;21067;-71
2022/08/04 05:56:07;;;;;;;17.02;15.00;;;;;;;20.81;79.46;100100.28;1687962;84;21834;-71
2022/08/04 05:58:33;;;;;;;16.50;14.78;;;;;;;20.83;79.49;100102.25;1688307;83;21370;-71
2022/08/04 06:01:00;;;;;;;16.50;14.83;;;;;;;20.85;79.47;100105.59;1682096;83;21012;-71
2022/08/04 06:03:29;;;;;;;16.85;15.15;;;;;;;20.90;79.45;100109.02;1685660;83;21044;-71
2022/08/04 06:05:56;;;;;;;16.15;14.58;;;;;;;20.90;79.33;100107.16;1691606;83;21459;-71
2022/08/04 06:08:23;;;;;;;15.90;14.35;;;;;;;20.88;79.17;100109.22;1692668;83;21825;-72
2022/08/04 06:10:50;;;;;;;15.30;13.80;;;;;;;20.90;79.22;100109.02;1687347;83;20956;-71
2022/08/04 06:13:18;;;;;;;16.12;14.47;;;;;;;20.89;79.25;100105.51;1685184;83;20985;-71
2022/08/04 06:15:47;;;;;;;16.37;14.80;;;;;;;20.90;79.31;100113.88;1687464;83;21059;-72
2022/08/04 06:18:13;;;;;;;16.10;14.60;;;;;;;20.91;79.30;100112.84;1685743;84;20968;-72
2022/08/04 06:20:41;;;;;;;15.08;13.72;;;;;;;20.92;79.23;100112.33;1681367;83;21895;-72
2022/08/04 06:23:12;;;;;;;16.60;14.93;;;;;;;20.91;79.31;100107.48;1710621;83;21063;-72
2022/08/04 06:25:44;;;;;;;16.32;14.63;;;;;;;20.94;79.19;100112.48;1688815;84;21072;-72
2022/08/04 06:28:10;;;;;;;16.30;14.78;;;;;;;20.97;79.14;100116.11;1689603;84;21012;-72
2022/08/04 06:30:37;;;;;;;16.23;14.75;;;;;;;20.98;79.09;100110.22;1685255;83;21013;-71
2022/08/04 06:33:12;;;;;;;17.30;14.93;;;;;;;20.97;78.97;100116.11;1670700;83;21703;-71
2022/08/04 06:35:32;;;;;;;16.93;14.80;;;;;;;20.99;79.01;100114.56;1686387;83;21368;-71
2022/08/04 06:37:59;;;;;;;16.15;14.50;;;;;;;21.03;79.01;100115.30;1678316;83;21059;-71
2022/08/04 06:40:25;;;;;;;15.30;13.68;;;;;;;21.06;78.97;100120.30;1686674;85;20969;-72
2022/08/04 06:42:52;;;;;;;15.95;14.45;;;;;;;21.11;78.95;100116.50;1643660;83;21492;-73
2022/08/04 06:45:18;;;;;;;16.15;14.65;;;;;;;21.17;78.79;100119.44;1690985;84;21740;-72
2022/08/04 06:47:45;;;;;;;16.35;14.78;;;;;;;21.18;78.50;100124.61;1684139;83;21090;-73
2022/08/04 06:50:11;;;;;;;16.15;14.63;;;;;;;21.17;78.28;100118.92;1683289;83;21553;-74
2022/08/04 06:52:38;;;;;;;18.27;14.33;;;;;;;21.18;78.29;100124.61;1702860;83;21087;-72
2022/08/04 06:55:06;;;;;;;15.75;14.30;;;;;;;21.21;78.32;100120.69;1693644;83;21377;-73
2022/08/04 06:57:34;;;;;;;16.70;15.00;;;;;;;21.23;78.20;100122.18;1718988;83;21959;-72
2022/08/04 07:00:09;;;;;;;15.63;14.23;;;;;;;21.23;78.17;100126.69;1697254;83;20955;-73
2022/08/04 07:02:45;;;;;;;16.67;15.05;;;;;;;21.25;78.28;100116.09;1699641;83;21008;-73
2022/08/04 07:05:11;;;;;;;16.73;15.13;;;;;;;21.28;78.07;100121.60;1662366;84;21635;-73
2022/08/04 07:07:40;;;;;;;16.75;15.08;;;;;;;21.30;78.13;100119.55;1697058;83;21061;-72
2022/08/04 07:10:08;;;;;;;17.37;15.68;;;;;;;21.33;78.18;100118.66;1687528;83;21925;-73
2022/08/04 07:12:35;;;;;;;17.98;16.17;;;;;;;21.41;78.23;100118.47;1692936;83;21030;-72
2022/08/04 07:15:03;;;;;;;16.90;15.30;;;;;;;21.51;78.19;100116.77;1689202;83;20998;-74
2022/08/04 07:17:30;;;;;;;16.17;14.68;;;;;;;21.61;78.03;100114.53;1709510;83;21036;-72
2022/08/04 07:19:58;;;;;;;16.50;14.95;;;;;;;21.74;78.03;100116.98;1661142;85;20884;-72
2022/08/04 07:22:26;;;;;;;16.55;14.85;;;;;;;21.87;77.53;100115.69;1662607;84;22969;-73
2022/08/04 07:24:56;;;;;;;16.30;14.73;;;;;;;21.94;77.08;100116.55;1664600;84;21071;-73
2022/08/04 07:27:24;;;;;;;17.98;14.70;;;;;;;22.01;76.65;100116.05;1636842;86;21038;-72
2022/08/04 07:29:51;;;;;;;16.40;14.90;;;;;;;22.04;76.30;100115.64;1658311;84;21028;-73
2022/08/04 07:32:21;;;;;;;17.57;15.72;;;;;;;22.06;76.19;100118.13;1641260;84;20979;-70
2022/08/04 07:34:50;;;;;;;17.32;15.08;;;;;;;22.04;75.95;100116.98;1670023;84;22316;-71
2022/08/04 07:37:17;;;;;;;17.50;15.65;;;;;;;22.07;76.03;100117.12;1659434;84;21081;-72
2022/08/04 07:39:44;;;;;;;16.40;14.93;;;;;;;22.09;76.06;100114.53;1662596;84;20971;-72
2022/08/04 07:42:10;;;;;;;16.70;14.98;;;;;;;;;;1666393;83;21134;-71
2022/08/04 07:44:37;;;;;;;17.62;16.02;;;;;;;22.14;76.19;100114.77;1680664;83;21121;-72
2022/08/04 07:47:06;;;;;;;17.98;15.25;;;;;;;22.21;75.77;100116.97;1705743;82;22593;-73
2022/08/04 07:49:33;;;;;;;17.48;15.83;;;;;;;22.25;75.76;100111.48;1686321;84;20957;-70
2022/08/04 07:52:01;;;;;;;20.15;15.93;;;;;;;22.26;75.28;100112.30;1669849;84;21016;-74
2022/08/04 07:54:28;;;;;;;17.52;15.70;;;;;;;22.27;75.38;100114.78;1689209;83;21035;-71
2022/08/04 07:56:55;;;;;;;18.12;15.90;;;;;;;22.28;75.39;100109.72;1672257;84;21066;-72
2022/08/04 07:59:22;;;;;;;17.95;16.05;;;;;;;22.35;75.30;100109.73;1666990;84;21870;-73
2022/08/04 08:01:48;;;;;;;16.87;15.18;;;;;;;22.40;75.08;100105.09;1689074;83;21099;-71
2022/08/04 08:04:15;;;;;;;16.85;15.30;;;;;;;22.49;75.27;100115.98;1679123;83;21001;-71
2022/08/04 08:06:42;;;;;;;17.70;15.50;;;;;;;22.61;75.18;100114.84;1681141;83;21000;-72
2022/08/04 08:09:16;;;;;;;17.27;15.68;;;;;;;22.69;74.81;100113.30;1667693;84;21103;-72
2022/08/04 08:11:48;;;;;;;16.30;14.70;;;;;;;22.75;74.74;100111.11;1682412;82;22541;-71
2022/08/04 08:14:16;;;;;;;17.90;15.65;;;;;;;22.75;74.45;100118.66;1669820;83;20965;-72
2022/08/04 08:16:43;;;;;;;16.52;14.93;;;;;;;22.75;74.29;100125.39;1684206;84;21410;-73
2022/08/04 08:19:10;;;;;;;17.17;15.38;;;;;;;22.73;74.10;100129.34;1697421;83;21055;-71
2022/08/04 08:21:36;;;;;;;16.73;15.03;;;;;;;22.74;74.17;100126.95;1683313;83;21011;-75
2022/08/04 08:24:06;;;;;;;17.02;15.23;;;;;;;22.73;74.03;100130.16;1686740;83;22394;-74
2022/08/04 08:26:33;;;;;;;20.60;15.25;;;;;;;22.72;74.14;100129.86;1691208;83;21562;-73
2022/08/04 08:29:02;;;;;;;16.65;14.87;;;;;;;22.74;74.25;100134.51;1664785;83;21090;-73
2022/08/04 08:31:28;;;;;;;17.32;15.53;;;;;;;22.72;74.04;100137.11;1670740;84;21127;-72
2022/08/04 08:33:55;;;;;;;17.07;15.40;;;;;;;22.68;74.04;100139.88;1689453;83;20986;-72
2022/08/04 08:36:38;;;;;;;17.37;15.58;;;;;;;22.65;73.96;100142.48;1661377;86;21925;-71
2022/08/04 08:39:13;;;;;;;17.27;15.63;;;;;;;22.60;73.77;100146.84;1688744;84;21370;-71
2022/08/04 08:41:48;;;;;;;17.48;15.48;;;;;;;22.57;73.74;100130.56;1691990;84;21055;-72
2022/08/04 08:45:03;;;;;;;16.17;14.58;;;;;;;22.60;73.86;100133.38;1691473;83;21377;-72
2022/08/04 08:48:09;;;;;;;16.25;14.58;;;;;;;22.67;74.21;100126.94;1618421;86;21087;-72
2022/08/04 08:51:03;;;;;;;16.57;14.78;;;;;;;22.85;73.97;100120.45;1673535;84;22249;-72
2022/08/04 08:54:13;;;;;;;16.02;14.63;;;;;;;23.02;73.09;100112.78;1648034;86;20989;-72
2022/08/04 08:57:09;;;;;;;15.13;13.53;;;;;;;23.18;71.88;100118.26;1667910;85;21531;-72
2022/08/04 09:00:08;;;;;;;17.45;14.50;;;;;;;23.27;71.84;100119.69;1607330;88;21085;-71
2022/08/04 09:03:15;;;;;;;15.83;14.23;;;;;;;23.37;71.02;100126.82;1606553;89;21495;-72
2022/08/04 09:06:02;;;;;;;23.60;14.53;;;;;;;23.52;71.22;100123.03;1666156;85;21792;-73
2022/08/04 09:09:04;;;;;;;15.75;14.03;;;;;;;23.64;70.08;100126.26;1664688;86;21541;-72
2022/08/04 09:11:42;;;;;;;15.83;14.35;;;;;;;23.78;70.44;100132.94;1664689;84;21011;-71
2022/08/04 09:14:22;;;;;;;15.90;14.20;;;;;;;23.97;70.06;100136.89;1673534;83;21052;-71
2022/08/04 09:17:02;;;;;;;16.10;14.40;;;;;;;24.15;69.75;100130.78;1664976;85;21469;-71
2022/08/04 09:19:40;;;;;;;19.42;14.80;;;;;;;24.33;69.30;100130.62;1677163;83;22265;-71
2022/08/04 09:22:17;;;;;;;14.68;13.28;;;;;;;24.44;68.52;100134.79;1670995;85;20969;-72
2022/08/04 09:25:09;;;;;;;15.93;14.33;;;;;;;24.51;68.63;100130.67;1663741;84;21049;-72
2022/08/04 09:27:54;;;;;;;15.20;13.60;;;;;;;24.53;67.46;100129.95;1667015;85;20978;-72
2022/08/04 09:30:44;;;;;;;14.25;12.95;;;;;;;24.55;67.61;100131.38;1656199;84;21454;-72
2022/08/04 09:33:49;;;;;;;15.23;13.80;;;;;;;24.63;67.42;100130.82;1677785;84;21794;-73
2022/08/04 09:36:50;;;;;;;14.95;13.48;;;;;;;24.77;66.95;100132.36;1675657;83;21452;-72
2022/08/04 09:39:27;;;;;;;14.23;12.93;;;;;;;24.83;66.67;100130.13;1667384;84;20968;-74
2022/08/04 09:42:11;;;;;;;13.70;12.40;;;;;;;24.87;65.98;100127.81;1630112;87;21507;-73
2022/08/04 09:45:13;;;;;;;13.10;11.75;;;;;;;24.98;65.93;100125.20;1675636;84;21026;-73
2022/08/04 09:47:48;;;;;;;13.48;12.13;;;;;;;25.24;66.36;100119.28;1672038;85;22562;-73
2022/08/04 09:50:45;;;;;;;15.25;12.55;;;;;;;25.41;64.87;100121.70;1670029;84;21402;-73
2022/08/04 09:53:56;;;;;;;17.27;11.83;;;;;;;25.42;64.06;100118.47;1667923;85;21452;-72
2022/08/04 09:56:40;;;;;;;16.10;12.65;;;;;;;25.59;64.92;100120.35;1668302;84;21001;-72
2022/08/04 09:59:21;;;;;;;13.68;11.50;;;;;;;25.85;62.92;100121.92;1650197;84;20973;-72
2022/08/04 10:01:51;;;;;;;12.37;11.05;;;;;;;26.00;63.09;100126.94;1673118;84;21863;-70
2022/08/04 10:04:18;;;;;;;13.00;11.70;;;;;;;26.21;63.00;100126.96;1674012;84;21029;-73
2022/08/04 10:07:24;;;;;;;14.18;12.73;;;;;;;26.33;61.69;100121.05;1676292;83;21061;-72
2022/08/04 10:10:24;;;;;;;13.50;12.20;;;;;;;26.40;62.05;100123.70;1672182;84;21015;-70
2022/08/04 10:13:24;;;;;;;12.63;11.53;;;;;;;26.63;62.08;100121.03;1671111;84;21064;-70
2022/08/04 10:16:20;;;;;;;13.55;12.13;;;;;;;26.77;60.47;100120.30;1664520;85;22659;-71
2022/08/04 10:19:18;;;;;;;13.45;12.15;;;;;;;26.76;59.93;100114.59;1681957;83;21608;-70
2022/08/04 10:21:53;;;;;;;13.18;11.88;;;;;;;26.74;59.49;100121.59;1674265;85;21348;-70
2022/08/04 10:24:49;;;;;;;14.10;12.70;;;;;;;26.59;59.54;100119.86;1677557;84;21039;-70
2022/08/04 10:27:34;;;;;;;15.53;12.23;;;;;;;26.51;59.89;100120.19;1638508;86;20961;-70
2022/08/04 10:30:12;;;;;;;14.65;12.40;;;;;;;26.46;60.12;100124.96;1688035;83;22445;-70
2022/08/04 10:33:08;;;;;;;13.70;12.47;;;;;;;26.43;60.42;100125.94;1674226;85;21019;-70
2022/08/04 10:35:46;;;;;;;13.30;12.05;;;;;;;26.56;60.94;100111.37;1691842;84;20976;-70
2022/08/04 10:38:23;;;;;;;13.05;11.80;;;;;;;26.78;60.50;100116.00;1697589;83;21004;-71
2022/08/04 10:41:07;;;;;;;13.50;12.20;;;;;;;26.98;59.94;100106.70;1698838;83;21492;-70
2022/08/04 10:44:02;;;;;;;13.38;11.97;;;;;;;27.11;59.11;100101.05;1699152;83;21834;-71
2022/08/04 10:46:33;;;;;;;13.83;12.13;;;;;;;27.29;59.50;100105.52;1698955;84;21067;-72
2022/08/04 10:49:04;;;;;;;16.25;12.10;;;;;;;27.53;59.33;100107.68;1698959;82;21478;-72
2022/08/04 10:51:44;;;;;;;15.18;12.18;;;;;;;27.73;58.68;100099.16;1733181;82;20999;-70
2022/08/04 10:54:16;;;;;;;13.05;11.78;;;;;;;27.92;58.08;100098.73;1705927;82;21102;-72
2022/08/04 10:56:56;;;;;;;12.82;11.63;;;;;;;28.15;57.51;100102.41;1688899;84;21852;-71
2022/08/04 10:59:55;;;;;;;13.90;12.50;;;;;;;28.12;56.39;100108.33;1697029;83;21038;-71
2022/08/04 11:02:53;;;;;;;17.87;16.27;;;;;;;27.84;56.63;100111.86;1667563;84;21413;-71
2022/08/04 11:05:53;;;;;;;12.93;11.70;;;;;;;27.76;57.04;100103.56;1685202;84;21428;-70
2022/08/04 11:08:34;;;;;;;15.20;11.40;;;;;;;28.03;56.99;100098.39;1696529;82;21444;-69
2022/08/04 11:11:28;;;;;;;12.15;10.95;;;;;;;28.20;56.39;100094.36;1715940;82;21818;-70
2022/08/04 11:14:03;;;;;;;12.37;11.08;;;;;;;28.34;55.60;100086.21;1671264;85;20972;-69
2022/08/04 11:17:01;;;;;;;12.88;10.58;;;;;;;28.56;55.62;100088.19;1698610;84;21058;-71
2022/08/04 11:20:13;;;;;;;50.58;45.28;;;;;;;28.76;54.38;100090.73;1682595;83;21032;-70
2022/08/04 11:23:09;;;;;;;16.02;12.90;;;;;;;28.84;54.16;100082.66;1627804;86;21023;-70
2022/08/04 11:26:05;;;;;;;13.00;11.65;;;;;;;28.98;53.05;100082.65;1608122;88;22456;-70
2022/08/04 11:29:06;;;;;;;12.43;10.80;;;;;;;29.07;53.80;100077.08;1676295;82;21028;-72
2022/08/04 11:31:42;;;;;;;12.53;11.10;;;;;;;29.26;54.10;100072.16;1677481;85;21449;-71
2022/08/04 11:34:22;;;;;;;12.85;11.60;;;;;;;29.69;52.14;100071.07;1684089;84;21111;-71
2022/08/04 11:37:01;;;;;;;12.95;11.25;;;;;;;29.89;52.25;100068.56;1688463;84;21647;-71
2022/08/04 11:39:35;;;;;;;11.60;10.60;;;;;;;30.04;51.21;100076.91;1685612;82;21956;-72
2022/08/04 11:42:16;;;;;;;13.03;10.88;;;;;;;30.12;50.78;100076.48;1675352;85;21047;-71
2022/08/04 11:45:06;;;;;;;11.80;10.70;;;;;;;30.11;51.52;100082.16;1683243;83;21541;-71
2022/08/04 11:47:44;;;;;;;13.18;11.05;;;;;;;30.15;50.07;100085.49;1696308;82;21000;-71
2022/08/04 11:50:33;;;;;;;14.45;11.57;;;;;;;29.70;50.35;100111.64;1677720;84;21075;-69
2022/08/04 11:53:00;;;;;;;12.93;11.73;;;;;;;29.47;52.22;100073.78;1675885;84;21799;-71
2022/08/04 11:55:27;;;;;;;12.28;11.10;;;;;;;29.67;52.71;100066.42;1682873;83;20884;-70
2022/08/04 11:57:53;;;;;;;10.40;9.40;;;;;;;29.66;52.37;100109.70;1678397;82;21000;-70
2022/08/04 12:00:20;;;;;;;9.65;8.85;;;;;;;29.45;50.97;100076.77;1659717;85;21456;-70
2022/08/04 12:03:27;;;;;;;10.03;8.95;;;;;;;29.07;51.31;100070.81;1680364;84;20956;-70
2022/08/04 12:06:26;;;;;;;9.38;8.53;;;;;;;28.86;52.06;100073.75;1689562;84;21847;-70
2022/08/04 12:09:27;;;;;;;9.90;9.08;;;;;;;28.92;52.66;100060.53;1703603;84;21464;-71
2022/08/04 12:12:14;;;;;;;13.05;11.70;;;;;;;29.03;52.94;100078.63;1697273;82;21518;-70
2022/08/04 12:15:18;;;;;;;13.60;12.03;;;;;;;29.03;52.94;100078.63;1675025;85;20992;-71